createdAt,value
2019-01-27T00:01:54.596Z,62.20
2019-01-27T00:04:22.176Z,54.13
2019-01-27T00:06:49.097Z,56.47
2019-01-27T00:09:16.020Z,54.43
2019-01-27T00:11:43.178Z,54.47
2019-01-27T00:14:10.413Z,49.60
2019-01-27T00:16:37.307Z,57.13
2019-01-27T00:19:04.233Z,50.63
2019-01-27T00:21:31.120Z,44.73
2019-01-27T00:23:58.126Z,47.83
2019-01-27T00:26:25.038Z,49.20
2019-01-27T00:28:52.177Z,46.40
2019-01-27T00:31:19.252Z,41.57
2019-01-27T00:33:46.756Z,41.63
2019-01-27T00:36:13.664Z,46.10
2019-01-27T00:38:40.887Z,44.20
2019-01-27T00:41:07.997Z,44.00
2019-01-27T00:43:35.143Z,39.70
2019-01-27T00:46:01.931Z,43.40
2019-01-27T00:48:29.172Z,46.60
2019-01-27T00:50:56.286Z,46.80
2019-01-27T00:53:23.354Z,38.53
2019-01-27T00:55:50.188Z,37.03
2019-01-27T00:58:17.120Z,36.10
2019-01-27T01:00:44.190Z,34.40
2019-01-27T01:03:11.078Z,38.30
2019-01-27T01:05:37.940Z,34.23
2019-01-27T01:08:06.074Z,27.77
2019-01-27T01:10:33.439Z,28.87
2019-01-27T01:13:00.892Z,37.93
2019-01-27T01:15:27.677Z,36.23
2019-01-27T01:17:54.573Z,31.67
2019-01-27T01:20:22.067Z,29.27
2019-01-27T01:22:49.426Z,30.87
2019-01-27T01:25:19.812Z,29.20
2019-01-27T01:27:47.217Z,29.83
2019-01-27T01:30:15.390Z,31.67
2019-01-27T01:32:42.731Z,31.10
2019-01-27T01:35:10.073Z,31.60
2019-01-27T01:37:37.191Z,32.80
2019-01-27T01:40:04.622Z,35.50
2019-01-27T01:42:31.770Z,34.07
2019-01-27T01:44:58.616Z,30.47
2019-01-27T01:47:25.900Z,34.60
2019-01-27T01:49:52.806Z,38.80
2019-01-27T01:52:19.908Z,33.40
2019-01-27T01:54:46.720Z,38.03
2019-01-27T01:57:13.526Z,36.57
2019-01-27T01:59:41.323Z,33.40
2019-01-27T02:02:08.083Z,35.23
2019-01-27T02:04:35.031Z,34.73
2019-01-27T02:07:02.035Z,34.30
2019-01-27T02:09:28.836Z,36.20
2019-01-27T02:11:55.674Z,35.10
2019-01-27T02:14:22.610Z,34.80
2019-01-27T02:16:49.446Z,31.93
2019-01-27T02:19:16.607Z,34.67
2019-01-27T02:21:43.503Z,37.00
2019-01-27T02:24:10.383Z,33.33
2019-01-27T02:26:37.184Z,34.37
2019-01-27T02:29:04.112Z,36.00
2019-01-27T02:31:31.286Z,38.27
2019-01-27T02:33:58.179Z,34.67
2019-01-27T02:36:24.950Z,73.67
2019-01-27T02:38:51.999Z,31.77
2019-01-27T02:41:18.820Z,30.17
2019-01-27T02:43:45.748Z,27.93
2019-01-27T02:46:12.646Z,26.90
2019-01-27T02:48:39.673Z,26.93
2019-01-27T02:51:06.443Z,27.60
2019-01-27T02:53:33.265Z,29.20
2019-01-27T02:56:00.069Z,25.57
2019-01-27T02:58:27.022Z,26.87
2019-01-27T03:00:53.938Z,25.53
2019-01-27T03:03:20.778Z,22.10
2019-01-27T03:06:07.495Z,24.40
2019-01-27T03:08:38.236Z,27.00
2019-01-27T03:11:05.055Z,28.80
2019-01-27T03:13:31.969Z,29.47
2019-01-27T03:15:59.134Z,26.67
2019-01-27T03:18:25.972Z,27.23
2019-01-27T03:20:52.920Z,28.43
2019-01-27T03:23:19.749Z,25.97
2019-01-27T03:25:46.557Z,22.63
2019-01-27T03:28:13.761Z,23.60
2019-01-27T03:30:40.984Z,22.43
2019-01-27T03:33:07.836Z,21.50
2019-01-27T03:35:34.713Z,21.87
2019-01-27T03:38:01.613Z,21.40
2019-01-27T03:40:28.395Z,20.60
2019-01-27T03:42:55.221Z,22.30
2019-01-27T03:45:22.138Z,20.90
2019-01-27T03:47:49.013Z,23.83
2019-01-27T03:50:15.846Z,24.33
2019-01-27T03:52:42.663Z,24.60
2019-01-27T03:55:11.140Z,22.53
2019-01-27T03:57:38.133Z,20.57
2019-01-27T04:00:06.022Z,19.20
2019-01-27T04:02:32.821Z,22.67
2019-01-27T04:04:59.625Z,20.43
2019-01-27T04:07:26.419Z,20.47
2019-01-27T04:09:53.187Z,20.60
2019-01-27T04:12:19.971Z,18.80
2019-01-27T04:14:46.884Z,23.47
2019-01-27T04:17:13.745Z,20.97
2019-01-27T04:19:40.650Z,22.50
2019-01-27T04:22:07.485Z,17.50
2019-01-27T04:24:34.335Z,20.23
2019-01-27T04:27:01.139Z,22.13
2019-01-27T04:29:28.047Z,31.20
2019-01-27T04:31:54.895Z,24.00
2019-01-27T04:34:21.694Z,20.67
2019-01-27T04:36:48.521Z,24.33
2019-01-27T04:39:15.303Z,19.77
2019-01-27T04:41:42.958Z,21.73
2019-01-27T04:44:09.972Z,21.07
2019-01-27T04:46:36.742Z,19.70
2019-01-27T04:49:03.829Z,24.97
2019-01-27T04:51:30.692Z,23.27
2019-01-27T04:53:57.585Z,23.47
2019-01-27T04:56:24.500Z,18.93
2019-01-27T04:58:51.318Z,19.73
2019-01-27T05:01:18.141Z,19.53
2019-01-27T05:04:01.340Z,18.50
2019-01-27T05:06:28.236Z,24.67
2019-01-27T05:08:55.042Z,21.90
2019-01-27T05:11:22.036Z,19.47
2019-01-27T05:13:48.800Z,20.90
2019-01-27T05:16:15.739Z,21.30
2019-01-27T05:18:42.603Z,19.03
2019-01-27T05:21:09.615Z,17.00
2019-01-27T05:23:36.396Z,18.13
2019-01-27T05:26:03.544Z,15.07
2019-01-27T05:28:30.371Z,22.43
2019-01-27T05:30:57.253Z,21.17
2019-01-27T05:33:24.382Z,18.90
2019-01-27T05:35:51.190Z,20.70
2019-01-27T05:38:18.084Z,15.07
2019-01-27T05:40:44.921Z,18.97
2019-01-27T05:43:11.734Z,22.47
2019-01-27T05:45:38.508Z,17.03
2019-01-27T05:48:05.348Z,15.97
2019-01-27T05:50:32.157Z,16.97
2019-01-27T05:52:58.980Z,15.23
2019-01-27T05:55:25.872Z,13.27
2019-01-27T05:57:53.046Z,13.37
2019-01-27T06:00:25.867Z,13.30
2019-01-27T06:02:52.848Z,11.93
2019-01-27T06:05:19.661Z,12.37
2019-01-27T06:07:46.898Z,13.93
2019-01-27T06:10:13.733Z,14.23
2019-01-27T06:12:40.729Z,14.50
2019-01-27T06:15:08.359Z,13.80
2019-01-27T06:17:35.355Z,13.80
2019-01-27T06:20:02.761Z,11.80
2019-01-27T06:22:29.564Z,12.00
2019-01-27T06:24:56.496Z,12.37
2019-01-27T06:27:23.304Z,12.23
2019-01-27T06:29:50.302Z,13.03
2019-01-27T06:32:42.606Z,12.17
2019-01-27T06:35:09.512Z,14.40
2019-01-27T06:37:36.287Z,13.77
2019-01-27T06:40:03.426Z,15.10
2019-01-27T06:42:30.425Z,13.40
2019-01-27T06:44:57.247Z,12.50
2019-01-27T06:47:24.095Z,15.33
2019-01-27T06:49:50.965Z,15.40
2019-01-27T06:52:18.180Z,12.00
2019-01-27T06:54:45.322Z,11.03
2019-01-27T06:57:12.126Z,13.13
2019-01-27T06:59:47.498Z,8.90
2019-01-27T07:02:29.635Z,10.43
2019-01-27T07:05:00.991Z,12.13
2019-01-27T07:07:49.177Z,9.30
2019-01-27T07:10:35.843Z,9.27
2019-01-27T07:13:17.066Z,10.17
2019-01-27T07:15:57.904Z,12.00
2019-01-27T07:18:31.668Z,10.33
2019-01-27T07:21:21.140Z,10.33
2019-01-27T07:24:07.667Z,9.33
2019-01-27T07:26:40.333Z,11.07
2019-01-27T07:29:38.652Z,11.70
2019-01-27T07:32:23.897Z,9.07
2019-01-27T07:35:09.384Z,8.87
2019-01-27T07:37:55.937Z,9.73
2019-01-27T07:40:51.323Z,9.60
2019-01-27T07:43:36.725Z,7.60
2019-01-27T07:46:10.012Z,10.57
2019-01-27T07:48:44.231Z,8.00
2019-01-27T07:51:36.732Z,8.87
2019-01-27T07:54:26.250Z,7.07
2019-01-27T07:57:04.325Z,8.97
2019-01-27T08:00:02.607Z,11.60
2019-01-27T08:02:36.958Z,11.13
2019-01-27T08:05:13.161Z,8.93
2019-01-27T08:07:59.647Z,10.50
2019-01-27T08:10:35.300Z,11.47
2019-01-27T08:13:33.552Z,9.23
2019-01-27T08:16:14.111Z,9.50
2019-01-27T08:18:47.292Z,10.53
2019-01-27T08:21:34.222Z,11.30
2019-01-27T08:24:13.687Z,10.13
2019-01-27T08:27:12.041Z,11.70
2019-01-27T08:29:57.244Z,11.83
2019-01-27T08:32:32.680Z,9.20
2019-01-27T08:35:31.047Z,10.80
2019-01-27T08:38:20.882Z,10.03
2019-01-27T08:41:05.757Z,10.50
2019-01-27T08:43:50.787Z,11.27
2019-01-27T08:46:34.368Z,11.87
2019-01-27T08:49:01.229Z,10.07
2019-01-27T08:51:27.995Z,9.70
2019-01-27T08:53:54.805Z,10.67
2019-01-27T08:56:21.604Z,9.33
2019-01-27T08:58:48.863Z,10.47
2019-01-27T09:01:31.811Z,11.10
2019-01-27T09:04:04.323Z,10.33
2019-01-27T09:06:49.645Z,11.63
2019-01-27T09:09:36.524Z,10.63
2019-01-27T09:12:13.199Z,13.60
2019-01-27T09:14:45.230Z,9.33
2019-01-27T09:17:24.421Z,10.07
2019-01-27T09:19:59.389Z,10.33
2019-01-27T09:22:32.774Z,9.07
2019-01-27T09:25:26.767Z,9.37
2019-01-27T09:28:00.684Z,8.43
2019-01-27T09:30:45.600Z,9.07
2019-01-27T09:33:28.375Z,7.10
2019-01-27T09:36:15.150Z,8.30
2019-01-27T09:39:08.013Z,8.50
2019-01-27T09:41:53.707Z,7.10
2019-01-27T09:44:46.838Z,7.80
2019-01-27T09:47:32.257Z,7.03
2019-01-27T09:50:05.324Z,9.33
2019-01-27T09:52:51.408Z,6.50
2019-01-27T09:55:47.934Z,5.80
2019-01-27T09:58:33.135Z,7.23
2019-01-27T10:01:10.393Z,7.23
2019-01-27T10:03:55.315Z,5.83
2019-01-27T10:06:40.943Z,7.37
2019-01-27T10:09:34.159Z,7.13
2019-01-27T10:12:09.663Z,7.27
2019-01-27T10:14:44.227Z,6.87
2019-01-27T10:17:37.724Z,6.87
2019-01-27T10:20:30.964Z,4.63
2019-01-27T10:23:08.181Z,6.87
2019-01-27T10:25:54.715Z,5.53
2019-01-27T10:28:50.452Z,6.63
2019-01-27T10:31:40.196Z,6.20
2019-01-27T10:34:44.419Z,5.70
2019-01-27T10:37:26.658Z,5.40
2019-01-27T10:40:17.165Z,6.43
2019-01-27T10:42:50.497Z,8.33
2019-01-27T10:45:31.500Z,5.10
2019-01-27T10:48:18.380Z,5.43
2019-01-27T10:51:07.833Z,6.23
2019-01-27T10:53:49.305Z,6.00
2019-01-27T10:56:24.360Z,6.53
2019-01-27T10:59:23.155Z,3.87
2019-01-27T11:02:12.717Z,4.80
2019-01-27T11:05:08.355Z,5.17
2019-01-27T11:07:46.196Z,4.53
2019-01-27T11:10:41.699Z,7.20
2019-01-27T11:13:28.659Z,4.77
2019-01-27T11:16:13.653Z,4.73
2019-01-27T11:18:59.389Z,4.70
2019-01-27T11:21:33.668Z,6.40
2019-01-27T11:24:25.707Z,5.30
2019-01-27T11:27:14.994Z,5.10
2019-01-27T11:29:52.916Z,7.77
2019-01-27T11:32:48.501Z,5.77
2019-01-27T11:35:24.499Z,4.47
2019-01-27T11:38:12.296Z,7.77
2019-01-27T11:41:02.355Z,4.27
2019-01-27T11:43:49.436Z,4.90
2019-01-27T11:46:33.116Z,6.23
2019-01-27T11:49:08.356Z,7.20
2019-01-27T11:51:45.659Z,6.97
2019-01-27T11:54:12.649Z,4.77
2019-01-27T11:56:40.354Z,5.50
2019-01-27T11:59:22.397Z,7.60
2019-01-27T12:01:50.028Z,5.53
2019-01-27T12:04:18.731Z,4.60
2019-01-27T12:06:45.651Z,9.20
2019-01-27T12:09:12.627Z,6.33
2019-01-27T12:11:39.767Z,3.70
2019-01-27T12:14:06.627Z,8.13
2019-01-27T12:16:33.950Z,5.50
2019-01-27T12:19:00.880Z,5.77
2019-01-27T12:21:27.725Z,5.10
2019-01-27T12:23:54.689Z,12.30
2019-01-27T12:26:22.259Z,5.43
2019-01-27T12:28:49.191Z,5.40
2019-01-27T12:31:16.540Z,4.00
2019-01-27T12:33:44.307Z,7.37
2019-01-27T12:36:11.240Z,6.87
2019-01-27T12:38:38.097Z,11.63
2019-01-27T12:41:05.036Z,10.37
2019-01-27T12:43:31.997Z,7.63
2019-01-27T12:45:59.040Z,8.90
2019-01-27T12:48:26.180Z,4.07
2019-01-27T12:50:55.955Z,5.70
2019-01-27T12:53:23.050Z,4.70
2019-01-27T12:55:53.283Z,7.33
2019-01-27T12:58:33.511Z,9.23
2019-01-27T13:01:19.004Z,6.40
2019-01-27T13:03:45.771Z,5.50
2019-01-27T13:06:13.411Z,6.00
2019-01-27T13:08:40.523Z,11.67
2019-01-27T13:11:09.796Z,5.40
2019-01-27T13:13:37.114Z,6.80
2019-01-27T13:16:04.623Z,5.10
2019-01-27T13:18:39.987Z,9.67
2019-01-27T13:21:22.377Z,4.30
2019-01-27T13:23:53.233Z,6.63
2019-01-27T13:26:20.359Z,8.30
2019-01-27T13:29:06.088Z,7.07
2019-01-27T13:31:36.971Z,7.57
2019-01-27T13:34:12.918Z,8.10
2019-01-27T13:36:44.634Z,5.97
2019-01-27T13:39:12.006Z,6.73
2019-01-27T13:41:41.255Z,4.67
2019-01-27T13:44:08.478Z,5.73
2019-01-27T13:46:35.722Z,8.23
2019-01-27T13:49:02.910Z,8.77
2019-01-27T13:51:32.168Z,10.70
2019-01-27T13:53:59.646Z,4.83
2019-01-27T13:56:26.810Z,6.57
2019-01-27T13:58:53.787Z,6.30
2019-01-27T14:01:21.307Z,5.37
2019-01-27T14:03:49.679Z,3.17
2019-01-27T14:06:16.571Z,3.67
2019-01-27T14:08:43.407Z,3.50
2019-01-27T14:11:11.008Z,3.27
2019-01-27T14:13:38.013Z,3.93
2019-01-27T14:16:04.991Z,6.27
2019-01-27T14:18:32.072Z,5.20
2019-01-27T14:20:59.171Z,3.80
2019-01-27T14:23:26.140Z,4.33
2019-01-27T14:25:53.058Z,3.73
2019-01-27T14:28:20.543Z,3.33
2019-01-27T14:30:47.396Z,7.40
2019-01-27T14:33:14.406Z,5.60
2019-01-27T14:35:43.579Z,6.37
2019-01-27T14:38:10.443Z,10.47
2019-01-27T14:40:37.588Z,7.53
2019-01-27T14:43:04.548Z,6.60
2019-01-27T14:45:31.592Z,7.73
2019-01-27T14:47:58.859Z,9.17
2019-01-27T14:50:27.656Z,11.50
2019-01-27T14:52:54.949Z,5.63
2019-01-27T14:55:21.976Z,7.63
2019-01-27T14:57:48.916Z,7.13
2019-01-27T15:00:19.947Z,10.80
2019-01-27T15:02:47.211Z,6.87
2019-01-27T15:05:14.403Z,10.50
2019-01-27T15:07:41.305Z,14.73
2019-01-27T15:10:09.571Z,8.80
2019-01-27T15:12:36.621Z,10.37
2019-01-27T15:15:04.560Z,7.43
2019-01-27T15:17:31.550Z,7.70
2019-01-27T15:19:58.672Z,7.40
2019-01-27T15:22:25.965Z,7.33
2019-01-27T15:24:53.075Z,6.30
2019-01-27T15:27:20.040Z,5.80
2019-01-27T15:29:46.852Z,6.47
2019-01-27T15:32:16.531Z,7.70
2019-01-27T15:34:43.402Z,9.77
2019-01-27T15:37:10.186Z,7.50
2019-01-27T15:39:39.222Z,8.97
2019-01-27T15:42:08.896Z,7.57
2019-01-27T15:44:35.698Z,8.20
2019-01-27T15:47:05.423Z,8.07
2019-01-27T15:49:32.606Z,7.10
2019-01-27T15:52:04.130Z,8.73
2019-01-27T15:54:31.757Z,8.10
2019-01-27T15:56:59.033Z,13.27
2019-01-27T15:59:28.283Z,9.57
2019-01-27T16:01:57.249Z,7.80
2019-01-27T16:04:24.610Z,10.50
2019-01-27T16:06:51.712Z,6.90
2019-01-27T16:09:20.533Z,9.80
2019-01-27T16:11:47.684Z,8.30
2019-01-27T16:14:17.307Z,9.60
2019-01-27T16:16:44.268Z,8.93
2019-01-27T16:19:11.479Z,6.17
2019-01-27T16:21:39.507Z,7.50
2019-01-27T16:24:16.703Z,11.17
2019-01-27T16:26:44.385Z,10.57
2019-01-27T16:29:11.497Z,11.90
2019-01-27T16:31:45.961Z,8.23
2019-01-27T16:34:28.133Z,6.77
2019-01-27T16:36:55.117Z,14.17
2019-01-27T16:39:24.656Z,10.57
2019-01-27T16:41:51.795Z,9.57
2019-01-27T16:44:21.464Z,13.90
2019-01-27T16:46:48.380Z,11.00
2019-01-27T16:49:15.524Z,10.53
2019-01-27T16:51:48.966Z,8.47
2019-01-27T16:54:11.856Z,9.47
2019-01-27T16:56:38.799Z,7.93
2019-01-27T16:59:10.661Z,7.90
2019-01-27T17:01:39.960Z,7.17
2019-01-27T17:04:10.468Z,6.47
2019-01-27T17:06:39.755Z,10.07
2019-01-27T17:09:10.094Z,9.20
2019-01-27T17:11:37.090Z,7.00
2019-01-27T17:14:04.272Z,8.37
2019-01-27T17:16:33.809Z,7.53
2019-01-27T17:19:01.577Z,8.40
2019-01-27T17:21:28.810Z,9.13
2019-01-27T17:23:57.086Z,15.80
2019-01-27T17:26:24.265Z,8.10
2019-01-27T17:28:53.491Z,9.60
2019-01-27T17:31:21.251Z,6.77
2019-01-27T17:33:48.889Z,10.00
2019-01-27T17:36:16.904Z,6.80
2019-01-27T17:38:43.916Z,10.00
2019-01-27T17:41:11.469Z,6.40
2019-01-27T17:43:39.296Z,8.43
2019-01-27T17:46:06.357Z,8.87
2019-01-27T17:48:34.867Z,7.70
2019-01-27T17:51:02.370Z,8.93
2019-01-27T17:53:33.045Z,9.60
2019-01-27T17:56:02.188Z,8.70
2019-01-27T17:58:40.655Z,7.80
2019-01-27T18:01:25.637Z,9.00
2019-01-27T18:03:59.088Z,10.53
2019-01-27T18:06:30.971Z,9.93
2019-01-27T18:09:14.363Z,13.03
2019-01-27T18:11:46.230Z,13.50
2019-01-27T18:14:17.914Z,10.07
2019-01-27T18:16:44.751Z,5.97
2019-01-27T18:19:11.587Z,6.60
2019-01-27T18:21:38.713Z,7.07
2019-01-27T18:24:05.688Z,7.60
2019-01-27T18:26:33.126Z,8.67
2019-01-27T18:29:00.064Z,10.60
2019-01-27T18:31:27.052Z,8.10
2019-01-27T18:33:53.909Z,7.20
2019-01-27T18:36:20.788Z,7.70
2019-01-27T18:38:47.661Z,8.50
2019-01-27T18:41:14.507Z,11.20
2019-01-27T18:43:41.526Z,11.50
2019-01-27T18:46:08.435Z,9.23
2019-01-27T18:48:35.252Z,11.93
2019-01-27T18:51:02.155Z,9.37
2019-01-27T18:53:47.308Z,8.57
2019-01-27T18:56:19.167Z,11.27
2019-01-27T18:58:53.553Z,9.93
2019-01-27T19:01:45.964Z,9.43
2019-01-27T19:04:22.089Z,15.67
2019-01-27T19:07:04.318Z,6.77
2019-01-27T19:09:51.022Z,7.47
2019-01-27T19:12:28.537Z,6.00
2019-01-27T19:15:08.396Z,8.87
2019-01-27T19:18:06.694Z,7.93
2019-01-27T19:20:48.492Z,8.90
2019-01-27T19:23:31.924Z,9.13
2019-01-27T19:26:33.450Z,8.80
2019-01-27T19:29:16.689Z,7.40
2019-01-27T19:31:56.943Z,7.87
2019-01-27T19:34:38.694Z,10.13
2019-01-27T19:37:41.111Z,6.97
2019-01-27T19:40:20.732Z,9.60
2019-01-27T19:43:05.943Z,5.87
2019-01-27T19:45:40.978Z,19.13
2019-01-27T19:48:27.769Z,8.17
2019-01-27T19:51:04.133Z,23.83
2019-01-27T19:53:43.805Z,11.33
2019-01-27T19:56:28.980Z,6.17
2019-01-27T19:59:05.522Z,7.63
2019-01-27T20:01:42.290Z,5.57
2019-01-27T20:04:20.769Z,4.87
2019-01-27T20:07:00.511Z,5.50
2019-01-27T20:09:47.224Z,11.10
2019-01-27T20:12:32.038Z,5.93
2019-01-27T20:15:21.547Z,6.30
2019-01-27T20:18:06.626Z,5.23
2019-01-27T20:21:11.748Z,7.90
2019-01-27T20:24:06.838Z,6.70
2019-01-27T20:26:51.859Z,5.20
2019-01-27T20:29:38.284Z,15.77
2019-01-27T20:32:36.688Z,6.63
2019-01-27T20:35:21.274Z,8.77
2019-01-27T20:37:58.408Z,8.60
2019-01-27T20:40:56.967Z,11.23
2019-01-27T20:43:34.149Z,6.07
2019-01-27T20:46:10.674Z,7.80
2019-01-27T20:48:57.024Z,8.70
2019-01-27T20:51:38.388Z,7.47
2019-01-27T20:54:19.333Z,9.77
2019-01-27T20:56:58.532Z,6.17
2019-01-27T20:59:32.669Z,7.17
2019-01-27T21:02:06.611Z,5.57
2019-01-27T21:04:49.617Z,4.40
2019-01-27T21:07:22.515Z,6.40
2019-01-27T21:10:27.273Z,8.50
2019-01-27T21:13:02.799Z,6.23
2019-01-27T21:15:35.171Z,5.03
2019-01-27T21:18:09.440Z,8.63
2019-01-27T21:20:36.339Z,7.23
2019-01-27T21:23:03.500Z,7.70
2019-01-27T21:25:30.359Z,6.23
2019-01-27T21:27:58.305Z,9.23
2019-01-27T21:30:25.141Z,7.10
2019-01-27T21:32:55.684Z,7.53
2019-01-27T21:35:21.059Z,8.67
2019-01-27T21:37:51.069Z,5.00
2019-01-27T21:40:18.456Z,6.50
2019-01-27T21:42:48.139Z,5.40
2019-01-27T21:45:15.472Z,7.90
2019-01-27T21:47:42.756Z,10.83
2019-01-27T21:50:11.390Z,5.20
2019-01-27T21:52:38.739Z,9.47
2019-01-27T21:55:06.170Z,7.30
2019-01-27T21:57:33.069Z,9.57
2019-01-27T22:00:00.197Z,5.80
2019-01-27T22:02:27.153Z,6.70
2019-01-27T22:04:54.152Z,10.83
2019-01-27T22:07:21.069Z,10.23
2019-01-27T22:09:57.333Z,9.43
2019-01-27T22:12:24.333Z,6.27
2019-01-27T22:14:51.229Z,8.60
2019-01-27T22:17:18.207Z,8.00
2019-01-27T22:19:45.155Z,5.83
2019-01-27T22:22:12.003Z,9.93
2019-01-27T22:24:38.847Z,6.83
2019-01-27T22:27:06.372Z,7.60
2019-01-27T22:29:33.383Z,9.40
2019-01-27T22:32:04.331Z,7.13
2019-01-27T22:34:31.386Z,6.40
2019-01-27T22:36:58.236Z,7.83
2019-01-27T22:39:25.240Z,10.10
2019-01-27T22:41:53.395Z,7.20
2019-01-27T22:44:20.353Z,8.10
2019-01-27T22:46:47.320Z,12.90
2019-01-27T22:49:14.127Z,6.77
2019-01-27T22:51:41.076Z,7.47
2019-01-27T22:54:09.954Z,8.20
2019-01-27T22:56:37.079Z,6.43
2019-01-27T22:59:04.394Z,7.40
2019-01-27T23:01:36.815Z,15.80
2019-01-27T23:04:04.623Z,8.43
2019-01-27T23:06:31.786Z,8.00
2019-01-27T23:08:59.123Z,7.47
2019-01-27T23:11:26.141Z,6.07
2019-01-27T23:13:52.959Z,7.93
2019-01-27T23:16:23.016Z,4.83
2019-01-27T23:18:50.277Z,6.70
2019-01-27T23:21:20.908Z,6.50
2019-01-27T23:23:53.881Z,11.13
2019-01-27T23:26:21.285Z,10.20
2019-01-27T23:28:48.293Z,8.20
2019-01-27T23:31:15.415Z,8.73
2019-01-27T23:33:42.382Z,7.73
2019-01-27T23:36:09.407Z,8.80
2019-01-27T23:38:36.624Z,7.70
2019-01-27T23:41:03.584Z,7.77
2019-01-27T23:43:31.041Z,7.20
2019-01-27T23:46:08.844Z,6.70
2019-01-27T23:48:35.836Z,9.03
2019-01-27T23:51:02.632Z,7.70
2019-01-27T23:53:29.883Z,9.07
2019-01-27T23:55:56.782Z,7.87
2019-01-27T23:58:23.791Z,8.00
